Terminal Aerodrome Forecast
Issued by NWS Lake Charles, LA

Home | Current Version | Previous Version | Text Only | Print | Product List | Glossary On
Versions: 1 2 3 4 5 6 7 8 9 10 11 12 13 14
000
FTUS44 KLCH 272340
TAFAEX
TAF
KAEX 272340Z 2800/2824 15009KT P6SM FEW035
      TEMPO 2804/2806 OVC010
     FM280600 16008KT 5SM BR OVC010
     FM281500 17011G18KT P6SM SCT014 SCT026
     FM281800 18016G22KT P6SM BKN250=

USA.gov is the U.S. government's official web portal to all federal, state and local government web resources and services.